sensor_id;sensor_type;location;lat;lon;timestamp;temperature;humidity
13794;DHT22;31160;49.500;7.772;2024-01-25T00:00:19;8.80;99.90
13794;DHT22;31160;49.500;7.772;2024-01-25T00:02:46;8.90;99.90
13794;DHT22;31160;49.500;7.772;2024-01-25T00:05:13;8.90;99.90
13794;DHT22;31160;49.500;7.772;2024-01-25T00:07:47;8.90;99.90
13794;DHT22;31160;49.500;7.772;2024-01-25T00:10:16;9.00;99.90
13794;DHT22;31160;49.500;7.772;2024-01-25T00:12:44;9.00;99.90
13794;DHT22;31160;49.500;7.772;2024-01-25T00:15:11;9.10;99.90
13794;DHT22;31160;49.500;7.772;2024-01-25T00:17:38;9.00;99.90
13794;DHT22;31160;49.500;7.772;2024-01-25T00:20:05;9.00;99.90
13794;DHT22;31160;49.500;7.772;2024-01-25T00:22:33;8.80;99.90
13794;DHT22;31160;49.500;7.772;2024-01-25T00:24:59;8.80;99.90
13794;DHT22;31160;49.500;7.772;2024-01-25T00:27:26;8.80;99.90
13794;DHT22;31160;49.500;7.772;2024-01-25T00:29:53;8.90;99.90
13794;DHT22;31160;49.500;7.772;2024-01-25T00:32:20;9.00;99.90
13794;DHT22;31160;49.500;7.772;2024-01-25T00:34:47;9.00;99.90
13794;DHT22;31160;49.500;7.772;2024-01-25T00:37:14;9.10;99.90
13794;DHT22;31160;49.500;7.772;2024-01-25T00:39:42;9.10;99.90
13794;DHT22;31160;49.500;7.772;2024-01-25T00:42:12;9.00;99.90
13794;DHT22;31160;49.500;7.772;2024-01-25T00:44:39;9.10;99.90
13794;DHT22;31160;49.500;7.772;2024-01-25T00:47:06;9.00;99.90
13794;DHT22;31160;49.500;7.772;2024-01-25T00:49:33;9.00;99.90
13794;DHT22;31160;49.500;7.772;2024-01-25T00:52:02;9.10;99.90
13794;DHT22;31160;49.500;7.772;2024-01-25T00:54:30;9.10;99.90
13794;DHT22;31160;49.500;7.772;2024-01-25T00:56:57;9.10;99.90
13794;DHT22;31160;49.500;7.772;2024-01-25T00:59:24;9.20;99.90
13794;DHT22;31160;49.500;7.772;2024-01-25T01:01:52;9.10;99.90
13794;DHT22;31160;49.500;7.772;2024-01-25T01:04:20;9.00;99.90
13794;DHT22;31160;49.500;7.772;2024-01-25T01:06:47;8.90;99.90
13794;DHT22;31160;49.500;7.772;2024-01-25T01:09:15;8.90;99.90
13794;DHT22;31160;49.500;7.772;2024-01-25T01:11:41;8.90;99.90
13794;DHT22;31160;49.500;7.772;2024-01-25T01:14:09;8.80;99.90
13794;DHT22;31160;49.500;7.772;2024-01-25T01:16:36;8.80;99.90
13794;DHT22;31160;49.500;7.772;2024-01-25T01:19:03;8.80;99.90
13794;DHT22;31160;49.500;7.772;2024-01-25T01:21:34;8.70;99.90
13794;DHT22;31160;49.500;7.772;2024-01-25T01:24:02;8.70;99.90
13794;DHT22;31160;49.500;7.772;2024-01-25T01:26:29;8.60;99.90
13794;DHT22;31160;49.500;7.772;2024-01-25T01:28:55;8.60;99.90
13794;DHT22;31160;49.500;7.772;2024-01-25T01:31:22;8.60;99.90
13794;DHT22;31160;49.500;7.772;2024-01-25T01:33:49;8.70;99.90
13794;DHT22;31160;49.500;7.772;2024-01-25T01:36:16;8.60;99.90
13794;DHT22;31160;49.500;7.772;2024-01-25T01:38:43;8.70;99.90
13794;DHT22;31160;49.500;7.772;2024-01-25T01:41:11;8.70;99.90
13794;DHT22;31160;49.500;7.772;2024-01-25T01:43:40;8.70;99.90
13794;DHT22;31160;49.500;7.772;2024-01-25T01:46:12;8.70;99.90
13794;DHT22;31160;49.500;7.772;2024-01-25T01:48:43;8.80;99.90
13794;DHT22;31160;49.500;7.772;2024-01-25T01:51:10;8.70;99.90
13794;DHT22;31160;49.500;7.772;2024-01-25T01:53:37;8.70;99.90
13794;DHT22;31160;49.500;7.772;2024-01-25T01:56:04;8.70;99.90
13794;DHT22;31160;49.500;7.772;2024-01-25T01:58:31;8.70;99.90
13794;DHT22;31160;49.500;7.772;2024-01-25T02:00:59;8.60;99.90
13794;DHT22;31160;49.500;7.772;2024-01-25T02:03:26;8.60;99.90
13794;DHT22;31160;49.500;7.772;2024-01-25T02:05:54;8.60;99.90
13794;DHT22;31160;49.500;7.772;2024-01-25T02:08:21;8.70;99.90
13794;DHT22;31160;49.500;7.772;2024-01-25T02:10:48;8.60;99.90
13794;DHT22;31160;49.500;7.772;2024-01-25T02:13:16;8.60;99.90
13794;DHT22;31160;49.500;7.772;2024-01-25T02:15:43;8.60;99.90
13794;DHT22;31160;49.500;7.772;2024-01-25T02:18:10;8.50;99.90
13794;DHT22;31160;49.500;7.772;2024-01-25T02:20:37;8.50;99.90
13794;DHT22;31160;49.500;7.772;2024-01-25T02:23:04;8.50;99.90
13794;DHT22;31160;49.500;7.772;2024-01-25T02:25:30;8.40;99.90
13794;DHT22;31160;49.500;7.772;2024-01-25T02:27:57;8.40;99.90
13794;DHT22;31160;49.500;7.772;2024-01-25T02:30:24;8.40;99.90
13794;DHT22;31160;49.500;7.772;2024-01-25T02:32:51;8.40;99.90
13794;DHT22;31160;49.500;7.772;2024-01-25T02:35:19;8.40;99.90
13794;DHT22;31160;49.500;7.772;2024-01-25T02:37:46;8.50;99.90
13794;DHT22;31160;49.500;7.772;2024-01-25T02:40:13;8.50;99.90
13794;DHT22;31160;49.500;7.772;2024-01-25T02:42:40;8.50;99.90
13794;DHT22;31160;49.500;7.772;2024-01-25T02:45:07;8.50;99.90
13794;DHT22;31160;49.500;7.772;2024-01-25T02:47:34;8.30;99.90
13794;DHT22;31160;49.500;7.772;2024-01-25T02:50:01;8.10;99.90
13794;DHT22;31160;49.500;7.772;2024-01-25T02:52:28;8.10;99.90
13794;DHT22;31160;49.500;7.772;2024-01-25T02:54:55;8.10;99.90
13794;DHT22;31160;49.500;7.772;2024-01-25T02:57:23;8.10;99.90
13794;DHT22;31160;49.500;7.772;2024-01-25T02:59:49;7.90;99.90
13794;DHT22;31160;49.500;7.772;2024-01-25T03:02:16;7.90;99.90
13794;DHT22;31160;49.500;7.772;2024-01-25T03:04:46;7.80;99.90
13794;DHT22;31160;49.500;7.772;2024-01-25T03:07:13;7.90;99.90
13794;DHT22;31160;49.500;7.772;2024-01-25T03:09:40;7.90;99.90
13794;DHT22;31160;49.500;7.772;2024-01-25T03:12:06;7.80;99.90
13794;DHT22;31160;49.500;7.772;2024-01-25T03:14:33;7.90;99.90
13794;DHT22;31160;49.500;7.772;2024-01-25T03:17:00;7.70;99.90
13794;DHT22;31160;49.500;7.772;2024-01-25T03:19:27;7.70;99.90
13794;DHT22;31160;49.500;7.772;2024-01-25T03:21:54;7.70;99.90
13794;DHT22;31160;49.500;7.772;2024-01-25T03:24:21;7.70;99.90
13794;DHT22;31160;49.500;7.772;2024-01-25T03:26:48;7.60;99.90
13794;DHT22;31160;49.500;7.772;2024-01-25T03:29:15;7.60;99.90
13794;DHT22;31160;49.500;7.772;2024-01-25T03:31:42;7.60;99.90
13794;DHT22;31160;49.500;7.772;2024-01-25T03:34:09;7.60;99.90
13794;DHT22;31160;49.500;7.772;2024-01-25T03:36:37;7.60;99.90
13794;DHT22;31160;49.500;7.772;2024-01-25T03:39:06;7.60;99.90
13794;DHT22;31160;49.500;7.772;2024-01-25T03:41:33;7.50;99.90
13794;DHT22;31160;49.500;7.772;2024-01-25T03:44:00;7.50;99.90
13794;DHT22;31160;49.500;7.772;2024-01-25T03:46:27;7.40;99.90
13794;DHT22;31160;49.500;7.772;2024-01-25T03:48:54;7.40;99.90
13794;DHT22;31160;49.500;7.772;2024-01-25T03:51:21;7.40;99.90
13794;DHT22;31160;49.500;7.772;2024-01-25T03:53:50;7.20;99.90
13794;DHT22;31160;49.500;7.772;2024-01-25T03:56:19;7.20;99.90
13794;DHT22;31160;49.500;7.772;2024-01-25T03:58:46;7.20;99.90
13794;DHT22;31160;49.500;7.772;2024-01-25T04:01:13;7.10;99.90
13794;DHT22;31160;49.500;7.772;2024-01-25T04:03:40;7.20;99.90
13794;DHT22;31160;49.500;7.772;2024-01-25T04:06:08;7.20;99.90
13794;DHT22;31160;49.500;7.772;2024-01-25T04:08:35;7.10;99.90
13794;DHT22;31160;49.500;7.772;2024-01-25T04:11:01;7.10;99.90
13794;DHT22;31160;49.500;7.772;2024-01-25T04:13:28;7.10;99.90
13794;DHT22;31160;49.500;7.772;2024-01-25T04:15:55;7.10;99.90
13794;DHT22;31160;49.500;7.772;2024-01-25T04:18:22;7.00;99.90
13794;DHT22;31160;49.500;7.772;2024-01-25T04:20:49;7.00;99.90
13794;DHT22;31160;49.500;7.772;2024-01-25T04:23:17;7.00;99.90
13794;DHT22;31160;49.500;7.772;2024-01-25T04:25:44;7.00;99.90
13794;DHT22;31160;49.500;7.772;2024-01-25T04:28:11;7.00;99.90
13794;DHT22;31160;49.500;7.772;2024-01-25T04:30:37;7.00;99.90
13794;DHT22;31160;49.500;7.772;2024-01-25T04:33:04;6.90;99.90
13794;DHT22;31160;49.500;7.772;2024-01-25T04:35:31;6.90;99.90
13794;DHT22;31160;49.500;7.772;2024-01-25T04:37:59;7.00;99.90
13794;DHT22;31160;49.500;7.772;2024-01-25T04:40:25;7.00;99.90
13794;DHT22;31160;49.500;7.772;2024-01-25T04:42:52;6.90;99.90
13794;DHT22;31160;49.500;7.772;2024-01-25T04:45:19;6.90;99.90
13794;DHT22;31160;49.500;7.772;2024-01-25T04:47:46;6.80;99.90
13794;DHT22;31160;49.500;7.772;2024-01-25T04:50:12;6.80;99.90
13794;DHT22;31160;49.500;7.772;2024-01-25T04:52:39;6.80;99.90
13794;DHT22;31160;49.500;7.772;2024-01-25T04:55:06;6.70;99.90
13794;DHT22;31160;49.500;7.772;2024-01-25T04:57:33;6.60;99.90
13794;DHT22;31160;49.500;7.772;2024-01-25T05:00:00;6.60;99.90
13794;DHT22;31160;49.500;7.772;2024-01-25T05:02:27;6.50;99.90
13794;DHT22;31160;49.500;7.772;2024-01-25T05:04:53;6.60;99.90
13794;DHT22;31160;49.500;7.772;2024-01-25T05:07:20;6.50;99.90
13794;DHT22;31160;49.500;7.772;2024-01-25T05:09:56;6.50;99.90
13794;DHT22;31160;49.500;7.772;2024-01-25T05:12:23;6.50;99.90
13794;DHT22;31160;49.500;7.772;2024-01-25T05:14:49;6.40;99.90
13794;DHT22;31160;49.500;7.772;2024-01-25T05:17:16;6.30;99.90
13794;DHT22;31160;49.500;7.772;2024-01-25T05:19:43;6.20;99.90
13794;DHT22;31160;49.500;7.772;2024-01-25T05:22:10;6.20;99.90
13794;DHT22;31160;49.500;7.772;2024-01-25T05:24:37;6.10;99.90
13794;DHT22;31160;49.500;7.772;2024-01-25T05:27:04;6.00;99.90
13794;DHT22;31160;49.500;7.772;2024-01-25T05:29:31;5.90;99.90
13794;DHT22;31160;49.500;7.772;2024-01-25T05:31:57;5.90;99.90
13794;DHT22;31160;49.500;7.772;2024-01-25T05:34:24;5.80;99.90
13794;DHT22;31160;49.500;7.772;2024-01-25T05:36:51;5.80;99.90
13794;DHT22;31160;49.500;7.772;2024-01-25T05:39:18;5.70;99.90
13794;DHT22;31160;49.500;7.772;2024-01-25T05:41:45;5.70;99.90
13794;DHT22;31160;49.500;7.772;2024-01-25T05:44:12;5.60;99.90
13794;DHT22;31160;49.500;7.772;2024-01-25T05:46:39;5.40;99.90
13794;DHT22;31160;49.500;7.772;2024-01-25T05:49:06;5.30;99.90
13794;DHT22;31160;49.500;7.772;2024-01-25T05:51:33;5.20;99.90
13794;DHT22;31160;49.500;7.772;2024-01-25T05:53:59;5.20;99.90
13794;DHT22;31160;49.500;7.772;2024-01-25T05:56:27;5.10;99.90
13794;DHT22;31160;49.500;7.772;2024-01-25T05:58:53;5.10;99.90
13794;DHT22;31160;49.500;7.772;2024-01-25T06:01:20;5.00;99.90
13794;DHT22;31160;49.500;7.772;2024-01-25T06:03:47;4.90;99.90
13794;DHT22;31160;49.500;7.772;2024-01-25T06:06:14;4.80;99.90
13794;DHT22;31160;49.500;7.772;2024-01-25T06:08:41;4.80;99.90
13794;DHT22;31160;49.500;7.772;2024-01-25T06:11:15;4.80;99.90
13794;DHT22;31160;49.500;7.772;2024-01-25T06:13:42;4.70;99.90
13794;DHT22;31160;49.500;7.772;2024-01-25T06:16:09;4.70;99.90
13794;DHT22;31160;49.500;7.772;2024-01-25T06:18:36;4.70;99.90
13794;DHT22;31160;49.500;7.772;2024-01-25T06:21:03;4.70;99.90
13794;DHT22;31160;49.500;7.772;2024-01-25T06:23:30;4.60;99.90
13794;DHT22;31160;49.500;7.772;2024-01-25T06:25:56;4.60;99.90
13794;DHT22;31160;49.500;7.772;2024-01-25T06:28:23;4.50;99.90
13794;DHT22;31160;49.500;7.772;2024-01-25T06:30:52;4.60;99.90
13794;DHT22;31160;49.500;7.772;2024-01-25T06:33:19;4.50;99.90
13794;DHT22;31160;49.500;7.772;2024-01-25T06:35:45;4.50;99.90
13794;DHT22;31160;49.500;7.772;2024-01-25T06:38:13;4.40;99.90
13794;DHT22;31160;49.500;7.772;2024-01-25T06:40:40;4.40;99.90
13794;DHT22;31160;49.500;7.772;2024-01-25T06:43:06;4.40;99.90
13794;DHT22;31160;49.500;7.772;2024-01-25T06:45:33;4.40;99.90
13794;DHT22;31160;49.500;7.772;2024-01-25T06:48:00;4.40;99.90
13794;DHT22;31160;49.500;7.772;2024-01-25T06:50:27;4.40;99.90
13794;DHT22;31160;49.500;7.772;2024-01-25T06:52:54;4.30;99.90
13794;DHT22;31160;49.500;7.772;2024-01-25T06:55:21;4.30;99.90
13794;DHT22;31160;49.500;7.772;2024-01-25T06:57:48;4.30;99.90
13794;DHT22;31160;49.500;7.772;2024-01-25T07:00:16;4.20;99.90
13794;DHT22;31160;49.500;7.772;2024-01-25T07:02:44;4.20;99.90
13794;DHT22;31160;49.500;7.772;2024-01-25T07:05:12;4.10;99.90
13794;DHT22;31160;49.500;7.772;2024-01-25T07:07:39;4.10;99.90
13794;DHT22;31160;49.500;7.772;2024-01-25T07:10:07;4.10;99.90
13794;DHT22;31160;49.500;7.772;2024-01-25T07:12:34;4.10;99.90
13794;DHT22;31160;49.500;7.772;2024-01-25T07:15:01;4.00;99.90
13794;DHT22;31160;49.500;7.772;2024-01-25T07:17:28;3.90;99.90
13794;DHT22;31160;49.500;7.772;2024-01-25T07:19:54;3.90;99.90
13794;DHT22;31160;49.500;7.772;2024-01-25T07:22:21;3.80;99.90
13794;DHT22;31160;49.500;7.772;2024-01-25T07:24:49;3.90;99.90
13794;DHT22;31160;49.500;7.772;2024-01-25T07:27:16;4.00;99.90
13794;DHT22;31160;49.500;7.772;2024-01-25T07:29:45;4.00;99.90
13794;DHT22;31160;49.500;7.772;2024-01-25T07:32:12;4.10;99.90
13794;DHT22;31160;49.500;7.772;2024-01-25T07:34:39;4.10;99.90
13794;DHT22;31160;49.500;7.772;2024-01-25T07:37:06;4.00;99.90
13794;DHT22;31160;49.500;7.772;2024-01-25T07:39:33;4.10;99.90
13794;DHT22;31160;49.500;7.772;2024-01-25T07:42:00;4.10;99.90
13794;DHT22;31160;49.500;7.772;2024-01-25T07:44:26;4.10;99.90
13794;DHT22;31160;49.500;7.772;2024-01-25T07:46:53;4.10;99.90
13794;DHT22;31160;49.500;7.772;2024-01-25T07:49:20;4.10;99.90
13794;DHT22;31160;49.500;7.772;2024-01-25T07:51:47;4.10;99.90
13794;DHT22;31160;49.500;7.772;2024-01-25T07:54:14;3.90;99.90
13794;DHT22;31160;49.500;7.772;2024-01-25T07:56:41;3.90;99.90
13794;DHT22;31160;49.500;7.772;2024-01-25T07:59:08;4.00;99.90
13794;DHT22;31160;49.500;7.772;2024-01-25T08:01:35;3.90;99.90
13794;DHT22;31160;49.500;7.772;2024-01-25T08:04:02;4.00;99.90
13794;DHT22;31160;49.500;7.772;2024-01-25T08:06:30;4.00;99.90
13794;DHT22;31160;49.500;7.772;2024-01-25T08:08:57;3.90;99.90
13794;DHT22;31160;49.500;7.772;2024-01-25T08:11:25;3.90;99.90
13794;DHT22;31160;49.500;7.772;2024-01-25T08:13:52;3.90;99.90
13794;DHT22;31160;49.500;7.772;2024-01-25T08:16:19;3.90;99.90
13794;DHT22;31160;49.500;7.772;2024-01-25T08:18:49;4.00;99.90
13794;DHT22;31160;49.500;7.772;2024-01-25T08:21:16;4.10;99.90
13794;DHT22;31160;49.500;7.772;2024-01-25T08:23:44;4.10;99.90
13794;DHT22;31160;49.500;7.772;2024-01-25T08:26:10;4.10;99.90
13794;DHT22;31160;49.500;7.772;2024-01-25T08:28:42;4.20;99.90
13794;DHT22;31160;49.500;7.772;2024-01-25T08:31:13;4.20;99.90
13794;DHT22;31160;49.500;7.772;2024-01-25T08:33:40;4.20;99.90
13794;DHT22;31160;49.500;7.772;2024-01-25T08:36:19;4.30;99.90
13794;DHT22;31160;49.500;7.772;2024-01-25T08:38:46;4.40;99.90
13794;DHT22;31160;49.500;7.772;2024-01-25T08:41:13;4.50;99.90
13794;DHT22;31160;49.500;7.772;2024-01-25T08:43:42;4.60;99.90
13794;DHT22;31160;49.500;7.772;2024-01-25T08:46:09;4.70;99.90
13794;DHT22;31160;49.500;7.772;2024-01-25T08:48:36;4.80;99.90
13794;DHT22;31160;49.500;7.772;2024-01-25T08:51:03;4.90;99.90
13794;DHT22;31160;49.500;7.772;2024-01-25T08:53:30;5.10;99.90
13794;DHT22;31160;49.500;7.772;2024-01-25T08:55:57;5.20;99.90
13794;DHT22;31160;49.500;7.772;2024-01-25T08:58:24;5.40;99.90
13794;DHT22;31160;49.500;7.772;2024-01-25T09:00:51;5.50;99.90
13794;DHT22;31160;49.500;7.772;2024-01-25T09:03:18;5.70;99.90
13794;DHT22;31160;49.500;7.772;2024-01-25T09:05:45;5.80;99.90
13794;DHT22;31160;49.500;7.772;2024-01-25T09:08:12;6.00;99.90
13794;DHT22;31160;49.500;7.772;2024-01-25T09:10:41;6.20;99.90
13794;DHT22;31160;49.500;7.772;2024-01-25T09:13:09;6.40;99.90
13794;DHT22;31160;49.500;7.772;2024-01-25T09:15:36;6.60;99.90
13794;DHT22;31160;49.500;7.772;2024-01-25T09:18:03;6.60;99.90
13794;DHT22;31160;49.500;7.772;2024-01-25T09:20:30;6.70;99.90
13794;DHT22;31160;49.500;7.772;2024-01-25T09:22:57;6.90;99.90
13794;DHT22;31160;49.500;7.772;2024-01-25T09:25:24;7.00;99.90
13794;DHT22;31160;49.500;7.772;2024-01-25T09:27:51;7.10;99.90
13794;DHT22;31160;49.500;7.772;2024-01-25T09:30:20;7.20;99.90
13794;DHT22;31160;49.500;7.772;2024-01-25T09:32:47;7.30;99.90
13794;DHT22;31160;49.500;7.772;2024-01-25T09:35:15;7.40;99.90
13794;DHT22;31160;49.500;7.772;2024-01-25T09:37:42;7.50;99.90
13794;DHT22;31160;49.500;7.772;2024-01-25T09:40:10;7.60;99.90
13794;DHT22;31160;49.500;7.772;2024-01-25T09:42:38;7.70;99.90
13794;DHT22;31160;49.500;7.772;2024-01-25T09:45:11;7.60;99.90
13794;DHT22;31160;49.500;7.772;2024-01-25T09:47:43;7.70;99.90
13794;DHT22;31160;49.500;7.772;2024-01-25T09:50:11;7.80;99.90
13794;DHT22;31160;49.500;7.772;2024-01-25T09:52:38;7.80;99.90
13794;DHT22;31160;49.500;7.772;2024-01-25T09:55:07;7.90;99.90
13794;DHT22;31160;49.500;7.772;2024-01-25T09:57:36;8.00;99.90
13794;DHT22;31160;49.500;7.772;2024-01-25T10:00:06;8.10;99.90
13794;DHT22;31160;49.500;7.772;2024-01-25T10:02:38;8.20;99.90
13794;DHT22;31160;49.500;7.772;2024-01-25T10:05:07;8.30;99.90
13794;DHT22;31160;49.500;7.772;2024-01-25T10:07:41;8.30;99.90
13794;DHT22;31160;49.500;7.772;2024-01-25T10:10:09;8.50;99.90
13794;DHT22;31160;49.500;7.772;2024-01-25T10:12:39;8.60;99.90
13794;DHT22;31160;49.500;7.772;2024-01-25T10:15:07;8.70;99.90
13794;DHT22;31160;49.500;7.772;2024-01-25T10:17:33;8.70;99.90
13794;DHT22;31160;49.500;7.772;2024-01-25T10:20:20;8.90;99.90
13794;DHT22;31160;49.500;7.772;2024-01-25T10:22:51;9.00;99.90
13794;DHT22;31160;49.500;7.772;2024-01-25T10:25:22;9.20;99.90
13794;DHT22;31160;49.500;7.772;2024-01-25T10:27:49;9.00;99.90
13794;DHT22;31160;49.500;7.772;2024-01-25T10:30:16;9.10;99.90
13794;DHT22;31160;49.500;7.772;2024-01-25T10:32:45;9.20;99.90
13794;DHT22;31160;49.500;7.772;2024-01-25T10:35:14;9.30;99.90
13794;DHT22;31160;49.500;7.772;2024-01-25T10:37:45;9.20;99.90
13794;DHT22;31160;49.500;7.772;2024-01-25T10:40:13;9.30;99.90
13794;DHT22;31160;49.500;7.772;2024-01-25T10:42:41;9.40;99.90
13794;DHT22;31160;49.500;7.772;2024-01-25T10:45:08;9.50;99.90
13794;DHT22;31160;49.500;7.772;2024-01-25T10:47:37;9.70;99.90
13794;DHT22;31160;49.500;7.772;2024-01-25T10:50:04;9.80;99.90
13794;DHT22;31160;49.500;7.772;2024-01-25T10:52:36;9.80;99.90
13794;DHT22;31160;49.500;7.772;2024-01-25T10:55:04;9.90;99.90
13794;DHT22;31160;49.500;7.772;2024-01-25T10:57:35;9.90;99.90
13794;DHT22;31160;49.500;7.772;2024-01-25T11:00:09;10.00;99.90
13794;DHT22;31160;49.500;7.772;2024-01-25T11:02:37;10.10;99.90
13794;DHT22;31160;49.500;7.772;2024-01-25T11:05:13;10.30;99.90
13794;DHT22;31160;49.500;7.772;2024-01-25T11:07:47;10.40;99.90
13794;DHT22;31160;49.500;7.772;2024-01-25T11:10:20;10.20;99.90
13794;DHT22;31160;49.500;7.772;2024-01-25T11:12:58;10.50;99.90
13794;DHT22;31160;49.500;7.772;2024-01-25T11:15:33;10.60;99.90
13794;DHT22;31160;49.500;7.772;2024-01-25T11:18:07;10.60;99.90
13794;DHT22;31160;49.500;7.772;2024-01-25T11:20:35;10.60;99.90
13794;DHT22;31160;49.500;7.772;2024-01-25T11:23:07;10.60;99.90
13794;DHT22;31160;49.500;7.772;2024-01-25T11:25:37;10.70;99.90
13794;DHT22;31160;49.500;7.772;2024-01-25T11:28:04;10.90;99.90
13794;DHT22;31160;49.500;7.772;2024-01-25T11:30:34;10.90;99.90
13794;DHT22;31160;49.500;7.772;2024-01-25T11:33:06;11.00;99.90
13794;DHT22;31160;49.500;7.772;2024-01-25T11:35:34;11.20;99.90
13794;DHT22;31160;49.500;7.772;2024-01-25T11:38:01;11.20;99.90
13794;DHT22;31160;49.500;7.772;2024-01-25T11:40:28;11.40;99.90
13794;DHT22;31160;49.500;7.772;2024-01-25T11:42:58;11.40;99.90
13794;DHT22;31160;49.500;7.772;2024-01-25T11:45:25;11.40;99.90
13794;DHT22;31160;49.500;7.772;2024-01-25T11:47:52;11.70;99.90
13794;DHT22;31160;49.500;7.772;2024-01-25T11:50:19;11.70;99.90
13794;DHT22;31160;49.500;7.772;2024-01-25T11:52:46;11.60;99.90
13794;DHT22;31160;49.500;7.772;2024-01-25T11:55:13;11.60;99.90
13794;DHT22;31160;49.500;7.772;2024-01-25T11:57:40;11.50;99.90
13794;DHT22;31160;49.500;7.772;2024-01-25T12:00:13;11.70;99.90
13794;DHT22;31160;49.500;7.772;2024-01-25T12:02:41;11.30;99.90
13794;DHT22;31160;49.500;7.772;2024-01-25T12:05:10;11.30;99.90
13794;DHT22;31160;49.500;7.772;2024-01-25T12:07:39;11.30;99.90
13794;DHT22;31160;49.500;7.772;2024-01-25T12:10:07;11.50;99.90
13794;DHT22;31160;49.500;7.772;2024-01-25T12:12:36;11.30;99.90
13794;DHT22;31160;49.500;7.772;2024-01-25T12:15:06;11.40;99.90
13794;DHT22;31160;49.500;7.772;2024-01-25T12:17:34;11.20;99.90
13794;DHT22;31160;49.500;7.772;2024-01-25T12:20:06;11.40;99.90
13794;DHT22;31160;49.500;7.772;2024-01-25T12:22:38;11.50;99.90
13794;DHT22;31160;49.500;7.772;2024-01-25T12:25:09;11.40;99.90
13794;DHT22;31160;49.500;7.772;2024-01-25T12:27:40;11.10;99.90
13794;DHT22;31160;49.500;7.772;2024-01-25T12:30:08;11.00;99.90
13794;DHT22;31160;49.500;7.772;2024-01-25T12:32:35;10.90;99.90
13794;DHT22;31160;49.500;7.772;2024-01-25T12:35:02;10.90;99.90
13794;DHT22;31160;49.500;7.772;2024-01-25T12:37:30;11.00;99.90
13794;DHT22;31160;49.500;7.772;2024-01-25T12:39:57;11.10;99.90
13794;DHT22;31160;49.500;7.772;2024-01-25T12:42:25;11.20;99.90
13794;DHT22;31160;49.500;7.772;2024-01-25T12:44:53;11.20;99.90
13794;DHT22;31160;49.500;7.772;2024-01-25T12:47:23;11.20;99.90
13794;DHT22;31160;49.500;7.772;2024-01-25T12:49:51;11.10;99.90
13794;DHT22;31160;49.500;7.772;2024-01-25T12:52:18;11.10;99.90
13794;DHT22;31160;49.500;7.772;2024-01-25T12:54:44;11.10;99.90
13794;DHT22;31160;49.500;7.772;2024-01-25T12:57:12;11.10;99.90
13794;DHT22;31160;49.500;7.772;2024-01-25T12:59:39;11.10;99.90
13794;DHT22;31160;49.500;7.772;2024-01-25T13:02:07;11.20;99.90
13794;DHT22;31160;49.500;7.772;2024-01-25T13:04:34;11.10;99.90
13794;DHT22;31160;49.500;7.772;2024-01-25T13:07:01;11.20;99.90
13794;DHT22;31160;49.500;7.772;2024-01-25T13:09:28;11.40;99.90
13794;DHT22;31160;49.500;7.772;2024-01-25T13:11:56;11.40;99.90
13794;DHT22;31160;49.500;7.772;2024-01-25T13:14:24;11.40;99.90
13794;DHT22;31160;49.500;7.772;2024-01-25T13:16:51;11.30;99.90
13794;DHT22;31160;49.500;7.772;2024-01-25T13:19:18;11.50;99.90
13794;DHT22;31160;49.500;7.772;2024-01-25T13:21:45;11.70;99.90
13794;DHT22;31160;49.500;7.772;2024-01-25T13:24:12;11.60;99.90
13794;DHT22;31160;49.500;7.772;2024-01-25T13:26:39;11.70;99.90
13794;DHT22;31160;49.500;7.772;2024-01-25T13:29:05;11.60;99.90
13794;DHT22;31160;49.500;7.772;2024-01-25T13:31:32;11.50;99.90
13794;DHT22;31160;49.500;7.772;2024-01-25T13:33:59;11.50;99.90
13794;DHT22;31160;49.500;7.772;2024-01-25T13:36:26;11.70;99.90
13794;DHT22;31160;49.500;7.772;2024-01-25T13:38:53;11.60;99.90
13794;DHT22;31160;49.500;7.772;2024-01-25T13:41:20;11.50;99.90
13794;DHT22;31160;49.500;7.772;2024-01-25T13:43:46;11.50;99.90
13794;DHT22;31160;49.500;7.772;2024-01-25T13:46:13;11.60;99.90
13794;DHT22;31160;49.500;7.772;2024-01-25T13:48:40;11.60;99.90
13794;DHT22;31160;49.500;7.772;2024-01-25T13:51:07;11.60;99.90
13794;DHT22;31160;49.500;7.772;2024-01-25T13:53:34;11.50;99.90
13794;DHT22;31160;49.500;7.772;2024-01-25T13:56:02;11.50;99.90
13794;DHT22;31160;49.500;7.772;2024-01-25T13:58:29;11.40;99.90
13794;DHT22;31160;49.500;7.772;2024-01-25T14:00:56;11.40;99.90
13794;DHT22;31160;49.500;7.772;2024-01-25T14:03:23;11.60;99.90
13794;DHT22;31160;49.500;7.772;2024-01-25T14:05:49;11.70;99.90
13794;DHT22;31160;49.500;7.772;2024-01-25T14:08:16;11.80;99.90
13794;DHT22;31160;49.500;7.772;2024-01-25T14:10:43;11.70;99.90
13794;DHT22;31160;49.500;7.772;2024-01-25T14:13:11;11.80;99.90
13794;DHT22;31160;49.500;7.772;2024-01-25T14:15:37;11.80;99.90
13794;DHT22;31160;49.500;7.772;2024-01-25T14:18:04;11.80;99.90
13794;DHT22;31160;49.500;7.772;2024-01-25T14:20:31;11.70;99.90
13794;DHT22;31160;49.500;7.772;2024-01-25T14:22:58;11.80;99.90
13794;DHT22;31160;49.500;7.772;2024-01-25T14:25:26;11.70;99.90
13794;DHT22;31160;49.500;7.772;2024-01-25T14:27:53;11.60;99.90
13794;DHT22;31160;49.500;7.772;2024-01-25T14:30:22;11.60;99.90
13794;DHT22;31160;49.500;7.772;2024-01-25T14:32:49;11.60;99.90
13794;DHT22;31160;49.500;7.772;2024-01-25T14:35:18;11.50;99.90
13794;DHT22;31160;49.500;7.772;2024-01-25T14:37:45;11.40;99.90
13794;DHT22;31160;49.500;7.772;2024-01-25T14:40:12;11.10;99.90
13794;DHT22;31160;49.500;7.772;2024-01-25T14:42:58;10.90;99.90
13794;DHT22;31160;49.500;7.772;2024-01-25T14:45:26;10.80;99.90
13794;DHT22;31160;49.500;7.772;2024-01-25T14:47:55;10.80;99.90
13794;DHT22;31160;49.500;7.772;2024-01-25T14:50:22;11.00;99.90
13794;DHT22;31160;49.500;7.772;2024-01-25T14:52:49;10.90;99.90
13794;DHT22;31160;49.500;7.772;2024-01-25T14:55:15;11.00;99.90
13794;DHT22;31160;49.500;7.772;2024-01-25T14:57:43;11.00;99.90
13794;DHT22;31160;49.500;7.772;2024-01-25T15:00:11;11.00;99.90
13794;DHT22;31160;49.500;7.772;2024-01-25T15:02:42;11.00;99.90
13794;DHT22;31160;49.500;7.772;2024-01-25T15:05:09;10.90;99.90
13794;DHT22;31160;49.500;7.772;2024-01-25T15:07:35;11.00;99.90
13794;DHT22;31160;49.500;7.772;2024-01-25T15:10:02;10.90;99.90
13794;DHT22;31160;49.500;7.772;2024-01-25T15:12:29;10.90;99.90
13794;DHT22;31160;49.500;7.772;2024-01-25T15:14:56;10.90;99.90
13794;DHT22;31160;49.500;7.772;2024-01-25T15:17:23;10.90;99.90
13794;DHT22;31160;49.500;7.772;2024-01-25T15:19:50;10.80;99.90
13794;DHT22;31160;49.500;7.772;2024-01-25T15:22:17;10.90;99.90
13794;DHT22;31160;49.500;7.772;2024-01-25T15:24:44;10.80;99.90
13794;DHT22;31160;49.500;7.772;2024-01-25T15:27:12;10.80;99.90
13794;DHT22;31160;49.500;7.772;2024-01-25T15:29:39;10.70;99.90
13794;DHT22;31160;49.500;7.772;2024-01-25T15:32:06;10.60;99.90
13794;DHT22;31160;49.500;7.772;2024-01-25T15:34:33;10.70;99.90
13794;DHT22;31160;49.500;7.772;2024-01-25T15:37:00;10.60;99.90
13794;DHT22;31160;49.500;7.772;2024-01-25T15:39:27;10.60;99.90
13794;DHT22;31160;49.500;7.772;2024-01-25T15:41:54;10.60;99.90
13794;DHT22;31160;49.500;7.772;2024-01-25T15:44:21;10.60;99.90